Time;durP1;ratioP1;P1;durP2;ratioP2;P2;SDS_P1;SDS_P2;PMS_P1;PMS_P2;Temp;Humidity;BMP_temperature;BMP_pressure;BME280_temperature;BME280_humidity;BME280_pressure;Samples;Min_cycle;Max_cycle;Signal;HPM_P1;HPM_P2
2023/09/26 00:02:17;;;;;;;11.38;4.90;;;;;;;11.52;100.00;102302.88;5073146;28;20039;-78
2023/09/26 00:04:42;;;;;;;7.90;4.68;;;;;;;11.47;100.00;102296.06;5072688;28;20028;-77
2023/09/26 00:07:08;;;;;;;5.85;4.65;;;;;;;11.45;100.00;102299.81;5075671;28;20318;-77
2023/09/26 00:09:35;;;;;;;8.45;5.15;;;;;;;11.43;100.00;102307.06;5076672;28;20032;-78
2023/09/26 00:12:00;;;;;;;9.38;5.30;;;;;;;11.42;100.00;102313.34;5076409;28;20111;-78
2023/09/26 00:14:27;;;;;;;10.48;4.95;;;;;;;11.40;100.00;102307.28;5076088;28;20060;-78
2023/09/26 00:16:53;;;;;;;11.60;5.82;;;;;;;11.42;100.00;102321.34;5076369;28;20457;-77
2023/09/26 00:19:18;;;;;;;7.05;5.07;;;;;;;11.41;100.00;102323.16;5074926;28;20032;-78
2023/09/26 00:21:43;;;;;;;8.40;5.00;;;;;;;11.39;100.00;102324.22;5076324;28;20056;-78
2023/09/26 00:24:09;;;;;;;8.02;4.60;;;;;;;11.37;100.00;102310.16;5075876;28;20032;-78
2023/09/26 00:26:34;;;;;;;7.40;5.22;;;;;;;11.37;100.00;102321.66;5076942;28;20036;-77
2023/09/26 00:28:59;;;;;;;7.75;5.22;;;;;;;11.38;100.00;102319.88;5076525;28;20380;-78
2023/09/26 00:31:25;;;;;;;6.55;4.90;;;;;;;11.38;100.00;102330.53;5075129;28;20033;-78
2023/09/26 00:33:50;;;;;;;11.63;5.65;;;;;;;11.38;100.00;102327.88;5076049;28;20413;-78
2023/09/26 00:36:15;;;;;;;10.70;5.72;;;;;;;11.39;100.00;102327.75;5075974;28;20406;-78
2023/09/26 00:38:41;;;;;;;11.77;6.28;;;;;;;11.39;100.00;102321.56;5076110;28;20439;-78
2023/09/26 00:41:07;;;;;;;13.00;5.72;;;;;;;11.37;100.00;102313.66;5075902;28;20039;-78
2023/09/26 00:43:32;;;;;;;13.00;6.15;;;;;;;11.36;100.00;102311.09;5074388;28;20033;-78
2023/09/26 00:45:59;;;;;;;12.05;6.30;;;;;;;11.35;100.00;102309.44;5076225;28;20032;-78
2023/09/26 00:48:26;;;;;;;10.93;6.55;;;;;;;11.33;100.00;102312.19;5075599;28;20045;-78
2023/09/26 00:50:54;;;;;;;10.98;6.32;;;;;;;11.30;100.00;102304.44;5075750;28;20036;-78
2023/09/26 00:53:24;;;;;;;9.85;5.32;;;;;;;11.26;100.00;102309.09;5076479;28;20033;-78
2023/09/26 00:55:52;;;;;;;9.38;5.68;;;;;;;11.23;100.00;102303.16;5075806;28;20060;-78
2023/09/26 00:58:18;;;;;;;11.25;6.35;;;;;;;11.22;100.00;102306.75;5075829;28;20511;-78
2023/09/26 01:00:53;;;;;;;13.82;6.95;;;;;;;11.23;100.00;102314.66;5075899;28;20089;-78
2023/09/26 01:03:19;;;;;;;12.20;6.60;;;;;;;11.24;100.00;102312.81;5074773;28;20038;-78
2023/09/26 01:05:44;;;;;;;15.45;7.20;;;;;;;11.22;100.00;102309.44;5075614;28;20409;-78
2023/09/26 01:08:09;;;;;;;17.15;7.55;;;;;;;11.22;100.00;102310.28;5075510;28;20055;-78
2023/09/26 01:10:36;;;;;;;14.98;7.35;;;;;;;11.20;100.00;102312.19;5075816;28;20033;-78
2023/09/26 01:13:02;;;;;;;15.02;7.82;;;;;;;11.18;100.00;102308.81;5075560;28;20029;-78
2023/09/26 01:15:39;;;;;;;12.40;7.75;;;;;;;11.16;100.00;102313.38;5075316;28;20119;-78
2023/09/26 01:18:13;;;;;;;13.25;7.40;;;;;;;11.16;100.00;102307.19;5074810;28;20103;-78
2023/09/26 01:20:43;;;;;;;11.73;6.97;;;;;;;11.13;100.00;102310.06;5074920;28;20040;-78
2023/09/26 01:23:10;;;;;;;14.05;7.95;;;;;;;11.11;100.00;102308.34;5075810;28;20424;-78
2023/09/26 01:25:36;;;;;;;11.82;7.63;;;;;;;11.13;100.00;102308.25;5074742;28;20116;-77
2023/09/26 01:28:07;;;;;;;13.88;7.38;;;;;;;11.14;100.00;102314.41;5074756;28;20033;-77
2023/09/26 01:30:39;;;;;;;15.40;9.52;;;;;;;11.14;100.00;102301.09;5075330;28;20056;-77
2023/09/26 01:33:16;;;;;;;18.73;8.95;;;;;;;11.12;100.00;102287.88;5074507;28;20044;-77
2023/09/26 01:35:43;;;;;;;15.63;9.30;;;;;;;11.09;100.00;102286.31;5075460;28;20068;-79
2023/09/26 01:38:08;;;;;;;22.17;10.77;;;;;;;11.10;100.00;102289.81;5074902;28;20028;-80
2023/09/26 01:40:34;;;;;;;17.10;9.43;;;;;;;11.09;100.00;102281.00;5074854;28;20526;-77
2023/09/26 01:43:00;;;;;;;17.58;8.57;;;;;;;11.08;100.00;102283.75;5073474;28;20044;-77
2023/09/26 01:45:25;;;;;;;13.85;8.35;;;;;;;11.05;100.00;102282.16;5075498;28;20424;-78
2023/09/26 01:47:51;;;;;;;13.40;7.95;;;;;;;11.02;100.00;102271.72;5075020;28;20117;-77
2023/09/26 01:50:19;;;;;;;19.75;8.50;;;;;;;11.01;100.00;102271.81;5074553;28;20090;-78
2023/09/26 01:52:45;;;;;;;18.88;9.93;;;;;;;10.99;100.00;102265.72;5074598;28;20024;-77
2023/09/26 01:55:20;;;;;;;15.05;9.63;;;;;;;10.98;100.00;102264.06;5075207;28;20035;-80
2023/09/26 01:57:46;;;;;;;13.25;8.00;;;;;;;10.95;100.00;102254.47;5074618;28;20054;-77
2023/09/26 02:00:12;;;;;;;13.77;8.02;;;;;;;10.94;100.00;102266.06;5074429;28;20044;-78
2023/09/26 02:02:42;;;;;;;17.45;9.77;;;;;;;10.93;100.00;102267.88;5074284;28;20081;-77
2023/09/26 02:05:09;;;;;;;19.80;11.02;;;;;;;10.98;100.00;102262.22;5074311;28;20041;-77
2023/09/26 02:07:35;;;;;;;16.42;10.57;;;;;;;11.01;100.00;102266.50;5074160;28;20481;-77
2023/09/26 02:10:01;;;;;;;19.95;9.90;;;;;;;11.01;100.00;102261.16;5074219;28;20028;-77
2023/09/26 02:12:27;;;;;;;19.15;10.02;;;;;;;10.98;100.00;102258.72;5073711;28;20484;-76
2023/09/26 02:14:52;;;;;;;18.77;10.15;;;;;;;10.98;100.00;102272.88;5074543;28;20032;-77
2023/09/26 02:17:17;;;;;;;17.52;9.35;;;;;;;11.00;100.00;102276.31;5074029;28;20060;-78
2023/09/26 02:19:43;;;;;;;22.55;12.23;;;;;;;11.03;100.00;102268.09;5074009;28;20069;-78
2023/09/26 02:22:08;;;;;;;17.95;9.98;;;;;;;11.04;100.00;102264.47;5073778;28;20362;-78
2023/09/26 02:24:34;;;;;;;23.17;11.43;;;;;;;11.05;100.00;102266.19;5073990;28;20112;-78
2023/09/26 02:26:59;;;;;;;22.30;12.48;;;;;;;11.10;100.00;102258.69;5073971;28;20036;-78
2023/09/26 02:29:27;;;;;;;34.83;16.75;;;;;;;11.17;100.00;102255.63;5073130;28;20032;-77
2023/09/26 02:31:52;;;;;;;29.55;14.13;;;;;;;11.18;100.00;102265.31;5073892;28;20033;-77
2023/09/26 02:34:19;;;;;;;18.30;10.98;;;;;;;11.11;100.00;102262.22;5074073;28;20039;-78
2023/09/26 02:36:44;;;;;;;20.30;10.48;;;;;;;11.03;100.00;102259.25;5072800;28;20062;-77
2023/09/26 02:39:10;;;;;;;22.33;10.73;;;;;;;10.98;100.00;102256.06;5073668;28;20027;-77
2023/09/26 02:41:35;;;;;;;25.63;13.25;;;;;;;10.96;100.00;102253.50;5073651;28;20032;-77
2023/09/26 02:44:03;;;;;;;25.85;12.70;;;;;;;10.92;100.00;102250.19;5073732;28;20046;-77
2023/09/26 02:46:29;;;;;;;19.88;11.70;;;;;;;10.88;100.00;102248.72;5072822;28;20067;-78
2023/09/26 02:48:54;;;;;;;23.25;11.32;;;;;;;10.87;100.00;102251.50;5072757;28;20033;-77
2023/09/26 02:51:20;;;;;;;21.90;11.95;;;;;;;10.86;100.00;102252.44;5073549;28;20029;-77
2023/09/26 02:53:45;;;;;;;27.67;12.85;;;;;;;10.84;100.00;102249.88;5073259;28;20043;-77
2023/09/26 02:56:11;;;;;;;22.02;12.00;;;;;;;10.85;100.00;102256.91;5073472;28;20041;-77
2023/09/26 02:58:36;;;;;;;22.48;12.02;;;;;;;10.82;100.00;102250.94;5073467;28;20020;-77
2023/09/26 03:01:04;;;;;;;25.10;12.82;;;;;;;10.75;100.00;102240.72;5073469;28;20503;-77
2023/09/26 03:03:29;;;;;;;21.75;12.65;;;;;;;10.74;100.00;102239.00;5073027;28;20552;-78
2023/09/26 03:05:55;;;;;;;21.13;11.75;;;;;;;10.73;100.00;102239.13;5073679;28;20060;-77
2023/09/26 03:08:21;;;;;;;24.13;11.68;;;;;;;10.70;100.00;102234.88;5074025;28;20120;-78
2023/09/26 03:10:46;;;;;;;23.75;13.07;;;;;;;10.72;100.00;102234.75;5072261;28;20377;-77
2023/09/26 03:13:12;;;;;;;32.28;14.68;;;;;;;10.72;100.00;102245.41;5072400;28;20125;-77
2023/09/26 03:15:38;;;;;;;30.02;14.00;;;;;;;10.72;100.00;102240.94;5072896;28;20494;-77
2023/09/26 03:18:03;;;;;;;29.48;13.75;;;;;;;10.73;100.00;102231.13;5073057;28;20048;-77
2023/09/26 03:20:29;;;;;;;27.05;12.88;;;;;;;10.72;100.00;102230.28;5071958;28;20169;-77
2023/09/26 03:22:54;;;;;;;24.52;12.75;;;;;;;10.69;100.00;102227.84;5071984;28;20044;-77
2023/09/26 03:25:19;;;;;;;22.25;12.10;;;;;;;10.67;100.00;102223.56;5072747;28;20361;-77
2023/09/26 03:27:46;;;;;;;19.70;11.40;;;;;;;10.65;100.00;102226.34;5072949;28;20115;-77
2023/09/26 03:30:15;;;;;;;19.85;11.68;;;;;;;10.64;100.00;102221.97;5073209;28;20033;-77
2023/09/26 03:32:40;;;;;;;20.65;10.85;;;;;;;10.64;100.00;102223.78;5073630;28;20037;-77
2023/09/26 03:35:06;;;;;;;18.77;11.10;;;;;;;10.63;100.00;102225.59;5073295;28;20036;-78
2023/09/26 03:37:32;;;;;;;21.23;11.10;;;;;;;10.63;100.00;102222.94;5073047;28;20365;-77
2023/09/26 03:39:57;;;;;;;16.60;9.93;;;;;;;10.62;100.00;102223.03;5072398;28;20086;-77
2023/09/26 03:42:23;;;;;;;16.13;10.13;;;;;;;10.59;100.00;102218.78;5077147;28;20036;-77
2023/09/26 03:44:48;;;;;;;15.35;8.30;;;;;;;10.61;100.00;102216.84;5075708;28;20036;-77
2023/09/26 03:47:13;;;;;;;19.67;10.43;;;;;;;10.61;100.00;102214.19;5076594;28;20055;-77
2023/09/26 03:49:39;;;;;;;15.77;9.50;;;;;;;10.56;100.00;102209.19;5076551;28;20516;-77
2023/09/26 03:52:04;;;;;;;16.98;9.95;;;;;;;10.54;100.00;102208.44;5076939;28;20487;-77
2023/09/26 03:54:30;;;;;;;15.57;9.02;;;;;;;10.52;100.00;102215.66;5076718;28;20036;-77
2023/09/26 03:56:56;;;;;;;20.25;10.82;;;;;;;10.50;100.00;102206.94;5076428;28;20474;-77
2023/09/26 03:59:21;;;;;;;16.73;9.77;;;;;;;10.48;100.00;102202.69;5076827;28;20029;-77
2023/09/26 04:01:49;;;;;;;16.25;9.32;;;;;;;10.46;100.00;102185.97;5076746;28;20036;-77
2023/09/26 04:04:14;;;;;;;20.02;10.13;;;;;;;10.43;100.00;102191.50;5076379;28;20025;-77
2023/09/26 04:06:39;;;;;;;20.88;11.02;;;;;;;10.40;100.00;102195.22;5076444;28;20047;-77
2023/09/26 04:09:05;;;;;;;18.95;11.48;;;;;;;10.39;100.00;102197.03;5075374;28;20043;-77
2023/09/26 04:11:30;;;;;;;21.60;12.15;;;;;;;10.36;100.00;102191.06;5076598;28;20036;-78
2023/09/26 04:13:56;;;;;;;19.85;10.90;;;;;;;10.38;100.00;102198.00;5076543;28;20477;-77
2023/09/26 04:16:21;;;;;;;28.70;13.98;;;;;;;10.45;100.00;102198.44;5076646;28;20457;-77
2023/09/26 04:18:46;;;;;;;29.33;14.20;;;;;;;10.50;100.00;102195.47;5076616;28;20040;-77
2023/09/26 04:21:12;;;;;;;22.60;12.60;;;;;;;10.53;100.00;102197.91;5076394;28;20024;-77
2023/09/26 04:23:37;;;;;;;23.92;13.27;;;;;;;10.52;100.00;102198.88;5075901;28;20468;-78
2023/09/26 04:26:14;;;;;;;23.88;13.00;;;;;;;10.48;100.00;102198.22;5076380;28;20036;-77
2023/09/26 04:28:41;;;;;;;21.13;11.85;;;;;;;10.46;100.00;102192.16;5076161;28;20146;-77
2023/09/26 04:31:16;;;;;;;25.75;12.82;;;;;;;10.46;100.00;102197.47;5075735;28;20034;-77
2023/09/26 04:33:41;;;;;;;24.77;12.25;;;;;;;10.45;100.00;102184.28;5076163;28;20035;-77
2023/09/26 04:36:07;;;;;;;24.95;13.07;;;;;;;10.47;100.00;102185.03;5075968;28;20044;-77
2023/09/26 04:38:32;;;;;;;32.35;15.85;;;;;;;10.50;100.00;102183.00;5076167;28;20139;-77
2023/09/26 04:41:01;;;;;;;34.67;16.83;;;;;;;10.55;100.00;102186.22;5076205;28;20035;-77
2023/09/26 04:43:30;;;;;;;33.60;15.30;;;;;;;10.59;100.00;102184.19;5075989;28;20052;-76
2023/09/26 04:45:55;;;;;;;26.08;14.52;;;;;;;10.57;100.00;102188.75;5075514;28;20056;-76
2023/09/26 04:48:20;;;;;;;25.42;12.70;;;;;;;10.57;100.00;102184.28;5076532;28;20434;-77
2023/09/26 04:50:46;;;;;;;25.73;14.00;;;;;;;10.59;100.00;102186.84;5075746;28;20037;-77
2023/09/26 04:53:11;;;;;;;25.95;14.98;;;;;;;10.59;100.00;102182.34;5074641;28;20439;-77
2023/09/26 04:55:37;;;;;;;29.00;15.77;;;;;;;10.60;100.00;102183.22;5075994;28;20424;-76
2023/09/26 04:58:03;;;;;;;40.15;16.95;;;;;;;10.56;100.00;102190.56;5075484;28;20105;-78
2023/09/26 05:00:29;;;;;;;30.63;16.88;;;;;;;10.58;100.00;102182.47;5075489;28;20064;-78
2023/09/26 05:02:54;;;;;;;30.52;16.25;;;;;;;10.57;100.00;102175.47;5075606;28;20060;-77
2023/09/26 05:05:20;;;;;;;27.38;14.75;;;;;;;10.54;100.00;102173.00;5075598;28;20138;-77
2023/09/26 05:07:46;;;;;;;30.70;17.77;;;;;;;10.55;100.00;102169.38;5075434;28;20024;-76
2023/09/26 05:10:12;;;;;;;30.90;16.55;;;;;;;10.57;100.00;102168.31;5075531;28;20492;-79
2023/09/26 05:12:40;;;;;;;31.92;16.80;;;;;;;10.59;100.00;102165.56;5075252;28;20040;-79
2023/09/26 05:15:16;;;;;;;32.95;16.25;;;;;;;10.58;100.00;102166.50;5075485;28;20032;-78
2023/09/26 05:17:46;;;;;;;36.47;19.88;;;;;;;10.55;100.00;102164.91;5075433;28;20051;-79
2023/09/26 05:20:12;;;;;;;35.85;18.90;;;;;;;10.53;100.00;102160.66;5075588;28;20024;-78
2023/09/26 05:22:43;;;;;;;34.70;18.73;;;;;;;10.51;100.00;102166.09;5076651;28;20032;-79
2023/09/26 05:25:09;;;;;;;40.33;20.42;;;;;;;10.51;100.00;102165.22;5076221;28;20028;-79
2023/09/26 05:27:37;;;;;;;44.75;21.10;;;;;;;10.50;100.00;102175.00;5076467;28;20428;-79
2023/09/26 05:30:03;;;;;;;43.58;21.45;;;;;;;10.48;100.00;102178.72;5075811;28;20029;-79
2023/09/26 05:32:28;;;;;;;42.88;20.92;;;;;;;10.47;100.00;102179.72;5073817;28;20119;-79
2023/09/26 05:34:54;;;;;;;37.72;21.13;;;;;;;10.45;100.00;102187.81;5075106;28;20131;-80
2023/09/26 05:37:20;;;;;;;39.80;19.55;;;;;;;10.38;100.00;102183.84;5074513;28;20459;-81
2023/09/26 05:39:45;;;;;;;36.45;19.67;;;;;;;10.33;100.00;102184.16;5075351;28;20029;-82
2023/09/26 05:42:10;;;;;;;38.33;22.30;;;;;;;10.30;100.00;102184.34;5075253;28;20033;-82
2023/09/26 05:44:37;;;;;;;40.72;22.20;;;;;;;10.23;100.00;102183.91;5073462;28;20109;-81
2023/09/26 05:47:03;;;;;;;32.00;17.70;;;;;;;10.22;100.00;102187.50;5074590;28;20049;-77
2023/09/26 05:49:28;;;;;;;37.33;20.27;;;;;;;10.22;100.00;102178.69;5074927;28;20068;-80
2023/09/26 05:51:54;;;;;;;37.75;20.65;;;;;;;10.22;100.00;102186.66;5074910;28;20552;-80
2023/09/26 05:54:19;;;;;;;39.83;20.83;;;;;;;10.23;100.00;102185.72;5074248;28;20385;-78
2023/09/26 05:56:44;;;;;;;43.55;21.63;;;;;;;10.24;100.00;102180.28;5074024;28;20127;-79
2023/09/26 05:59:10;;;;;;;42.05;22.15;;;;;;;10.27;100.00;102184.56;5074310;28;20538;-79
2023/09/26 06:01:35;;;;;;;46.35;25.10;;;;;;;10.30;100.00;102178.16;5074503;28;20039;-79
2023/09/26 06:04:01;;;;;;;50.58;24.67;;;;;;;10.35;100.00;102181.41;5073302;28;20439;-79
2023/09/26 06:06:26;;;;;;;54.35;27.00;;;;;;;10.41;100.00;102175.66;5074210;28;20072;-79
2023/09/26 06:08:51;;;;;;;48.03;25.95;;;;;;;10.46;100.00;102178.84;5074991;28;20029;-79
2023/09/26 06:11:17;;;;;;;48.95;24.50;;;;;;;10.51;100.00;102175.84;5072879;28;20052;-79
2023/09/26 06:13:44;;;;;;;51.17;26.75;;;;;;;10.52;100.00;102167.75;5074403;28;20081;-78
2023/09/26 06:16:09;;;;;;;49.90;25.92;;;;;;;10.53;100.00;102164.16;5072549;28;20400;-79
2023/09/26 06:18:35;;;;;;;57.40;27.77;;;;;;;10.53;100.00;102158.84;5074112;28;20024;-78
2023/09/26 06:21:04;;;;;;;49.85;26.98;;;;;;;10.54;100.00;102157.88;5074051;28;20036;-80
2023/09/26 06:23:32;;;;;;;47.20;25.20;;;;;;;10.55;100.00;102162.25;5074182;28;20109;-79
2023/09/26 06:25:58;;;;;;;48.13;26.25;;;;;;;10.56;100.00;102155.97;5073818;28;20127;-78
2023/09/26 06:28:24;;;;;;;54.63;27.10;;;;;;;10.59;100.00;102152.25;5074286;28;20463;-83
2023/09/26 06:30:49;;;;;;;48.35;25.83;;;;;;;10.64;100.00;102159.91;5073666;28;20040;-79
2023/09/26 06:33:15;;;;;;;52.88;27.42;;;;;;;10.69;100.00;102168.41;5072180;28;20040;-79
2023/09/26 06:35:40;;;;;;;54.63;28.58;;;;;;;10.75;100.00;102165.34;5072040;28;20511;-81
2023/09/26 06:38:05;;;;;;;58.50;30.83;;;;;;;10.88;100.00;102162.63;5071720;28;20052;-80
2023/09/26 06:40:31;;;;;;;67.00;32.53;;;;;;;10.99;100.00;102162.75;5073147;28;20067;-80
2023/09/26 06:43:00;;;;;;;62.05;33.28;;;;;;;11.12;100.00;102157.38;5072961;28;20113;-80
2023/09/26 06:45:25;;;;;;;59.13;31.17;;;;;;;11.22;100.00;102158.41;5072045;28;20033;-80
2023/09/26 06:47:51;;;;;;;61.85;32.47;;;;;;;11.30;100.00;102149.88;5073205;28;20040;-80
2023/09/26 06:50:16;;;;;;;62.03;31.52;;;;;;;11.38;100.00;102147.50;5072687;28;20040;-80
2023/09/26 06:52:42;;;;;;;66.82;33.20;;;;;;;11.49;100.00;102149.38;5073090;28;20028;-80
2023/09/26 06:55:11;;;;;;;65.43;32.80;;;;;;;11.57;100.00;102151.47;5072953;28;20479;-78
2023/09/26 06:57:40;;;;;;;58.25;30.08;;;;;;;11.64;100.00;102164.25;5072774;28;20115;-79
2023/09/26 07:00:12;;;;;;;59.05;29.95;;;;;;;11.69;100.00;102160.34;5072744;28;20032;-78
2023/09/26 07:02:40;;;;;;;52.45;29.80;;;;;;;11.70;100.00;102154.91;5072497;28;20040;-77
2023/09/26 07:05:06;;;;;;;57.03;29.90;;;;;;;11.73;100.00;102154.69;5073378;28;20040;-77
2023/09/26 07:07:32;;;;;;;49.88;29.00;;;;;;;11.82;100.00;102155.81;5073671;28;20377;-77
2023/09/26 07:09:58;;;;;;;60.70;29.98;;;;;;;11.92;100.00;102156.00;5073204;28;20040;-76
2023/09/26 07:12:26;;;;;;;56.83;30.42;;;;;;;12.03;100.00;102158.69;5072480;28;20029;-77
2023/09/26 07:14:52;;;;;;;65.70;32.95;;;;;;;12.19;100.00;102160.22;5073275;28;20033;-76
2023/09/26 07:17:17;;;;;;;57.47;33.55;;;;;;;12.35;100.00;102164.25;5071949;28;20197;-75
2023/09/26 07:19:42;;;;;;;58.03;33.10;;;;;;;12.49;100.00;102165.00;5072493;28;20032;-76
2023/09/26 07:22:08;;;;;;;63.15;31.75;;;;;;;12.63;100.00;102166.59;5073012;28;20071;-76
2023/09/26 07:24:33;;;;;;;59.40;32.35;;;;;;;12.73;100.00;102169.41;5073109;28;20025;-76
2023/09/26 07:26:59;;;;;;;58.17;30.95;;;;;;;12.84;100.00;102169.41;5071892;28;20033;-76
2023/09/26 07:29:25;;;;;;;53.75;28.95;;;;;;;12.88;100.00;102166.38;5072756;28;20067;-76
2023/09/26 07:31:51;;;;;;;56.83;30.38;;;;;;;12.94;100.00;102166.84;5072785;28;20040;-76
2023/09/26 07:34:17;;;;;;;54.78;28.38;;;;;;;13.01;100.00;102162.72;5073479;28;20047;-76
2023/09/26 07:36:43;;;;;;;51.38;29.00;;;;;;;13.10;100.00;102161.97;5072653;28;20389;-76
2023/09/26 07:39:08;;;;;;;49.65;27.08;;;;;;;13.24;100.00;102163.53;5071636;28;20037;-76
2023/09/26 07:41:33;;;;;;;48.90;28.45;;;;;;;13.38;100.00;102155.28;5055128;28;20060;-76
2023/09/26 07:43:59;;;;;;;52.20;28.55;;;;;;;13.57;100.00;102172.50;5072722;28;20029;-77
2023/09/26 07:46:24;;;;;;;42.15;26.35;;;;;;;13.71;100.00;102168.69;5071749;28;20040;-76
2023/09/26 07:48:49;;;;;;;42.70;25.35;;;;;;;13.83;100.00;102167.66;5071640;28;20033;-76
2023/09/26 07:51:16;;;;;;;38.03;24.27;;;;;;;14.00;100.00;102166.25;5072020;28;20128;-77
2023/09/26 07:53:42;;;;;;;42.13;22.85;;;;;;;14.14;100.00;102154.38;5072569;28;20032;-80
2023/09/26 07:56:08;;;;;;;35.60;22.23;;;;;;;14.29;100.00;102158.41;5072728;28;20032;-78
2023/09/26 07:58:33;;;;;;;32.88;21.35;;;;;;;14.46;100.00;102150.75;5072906;28;20036;-79
2023/09/26 08:01:00;;;;;;;31.55;19.67;;;;;;;14.54;100.00;102150.94;5071733;28;20115;-79
2023/09/26 08:03:26;;;;;;;32.38;19.52;;;;;;;14.61;100.00;102152.16;5072585;28;20090;-78
2023/09/26 08:06:02;;;;;;;30.45;20.00;;;;;;;14.77;100.00;102151.63;5072796;28;20037;-79
2023/09/26 08:08:29;;;;;;;37.47;20.65;;;;;;;15.01;100.00;102165.69;5072797;28;20105;-79
2023/09/26 08:10:55;;;;;;;29.33;18.30;;;;;;;15.19;100.00;102164.03;5072761;28;20047;-77
2023/09/26 08:13:20;;;;;;;29.40;17.23;;;;;;;15.33;100.00;102162.78;5071430;28;20036;-75
2023/09/26 08:15:46;;;;;;;28.67;17.23;;;;;;;15.48;100.00;102163.25;5072667;28;20123;-77
2023/09/26 08:18:11;;;;;;;22.45;15.95;;;;;;;15.59;100.00;102157.75;5072940;28;20025;-77
2023/09/26 08:20:37;;;;;;;26.90;15.98;;;;;;;15.71;100.00;102155.78;5073003;28;20045;-76
2023/09/26 08:23:02;;;;;;;23.73;14.07;;;;;;;15.75;100.00;102151.84;5072686;28;20387;-77
2023/09/26 08:25:28;;;;;;;21.05;14.45;;;;;;;15.85;100.00;102160.78;5072596;28;20462;-77
2023/09/26 08:27:53;;;;;;;23.02;14.40;;;;;;;15.89;100.00;102158.66;5074545;28;20033;-77
2023/09/26 08:30:19;;;;;;;20.90;14.02;;;;;;;16.00;100.00;102154.97;5075858;28;20116;-77
2023/09/26 08:32:44;;;;;;;23.48;14.35;;;;;;;16.28;100.00;102142.47;5076096;28;20089;-77
2023/09/26 08:35:10;;;;;;;18.95;12.85;;;;;;;16.53;100.00;102132.94;5074305;28;20036;-77
2023/09/26 08:37:40;;;;;;;17.52;12.40;;;;;;;16.68;100.00;102135.16;5076807;28;20094;-77
2023/09/26 08:40:10;;;;;;;18.83;12.37;;;;;;;16.72;100.00;102126.66;5076154;28;20036;-77
2023/09/26 08:42:45;;;;;;;16.25;11.88;;;;;;;16.83;100.00;102138.19;5075913;28;20030;-78
2023/09/26 08:45:11;;;;;;;18.80;11.27;;;;;;;16.99;100.00;102132.19;5076646;28;20052;-77
2023/09/26 08:47:42;;;;;;;16.25;11.00;;;;;;;17.08;100.00;102134.00;5076215;28;20044;-77
2023/09/26 08:50:07;;;;;;;15.93;10.35;;;;;;;17.10;100.00;102138.22;5076146;28;20041;-76
2023/09/26 08:52:34;;;;;;;15.48;10.45;;;;;;;17.09;100.00;102139.22;5075463;28;20033;-78
2023/09/26 08:55:00;;;;;;;23.10;10.00;;;;;;;17.17;100.00;102135.78;5075709;28;20032;-77
2023/09/26 08:57:25;;;;;;;16.48;10.07;;;;;;;17.28;100.00;102130.16;5075671;28;20119;-77
2023/09/26 08:59:54;;;;;;;20.50;10.55;;;;;;;17.48;100.00;102123.81;5076041;28;20036;-77
2023/09/26 09:02:19;;;;;;;18.02;10.38;;;;;;;17.76;100.00;102124.56;5075235;28;20051;-75
2023/09/26 09:04:45;;;;;;;18.75;9.98;;;;;;;18.12;100.00;102122.72;5076457;28;20441;-77
2023/09/26 09:07:12;;;;;;;16.38;9.63;;;;;;;18.60;100.00;102114.19;5074976;28;20368;-77
2023/09/26 09:10:10;;;;;;;23.35;9.57;;;;;;;19.43;100.00;102113.47;5075538;28;20114;-77
2023/09/26 09:12:37;;;;;;;12.65;8.98;;;;;;;20.27;100.00;102099.78;5074492;28;20035;-76
2023/09/26 09:15:17;;;;;;;12.00;8.25;;;;;;;20.69;100.00;102095.09;5076028;28;20068;-76
2023/09/26 09:17:43;;;;;;;17.52;8.85;;;;;;;21.01;100.00;102095.97;5075704;28;20033;-78
2023/09/26 09:20:10;;;;;;;12.35;8.40;;;;;;;21.49;100.00;102102.91;5075355;28;20416;-75
2023/09/26 09:22:36;;;;;;;11.88;8.00;;;;;;;21.95;100.00;102101.22;5075118;28;20056;-77
2023/09/26 09:25:02;;;;;;;12.27;7.85;;;;;;;22.36;100.00;102103.50;5075290;28;20121;-77
2023/09/26 09:27:34;;;;;;;11.55;8.25;;;;;;;22.50;100.00;102109.97;5074835;28;20040;-77
2023/09/26 09:30:12;;;;;;;12.30;8.48;;;;;;;22.67;100.00;102107.91;5074793;28;20032;-76
2023/09/26 09:32:42;;;;;;;10.38;7.50;;;;;;;23.03;100.00;102112.50;5074083;28;20032;-78
2023/09/26 09:35:17;;;;;;;12.68;7.90;;;;;;;23.15;100.00;102102.03;5076226;28;20032;-77
2023/09/26 09:37:47;;;;;;;11.73;7.38;;;;;;;23.52;100.00;102109.06;5076189;28;20126;-76
2023/09/26 09:40:20;;;;;;;14.10;7.15;;;;;;;24.03;100.00;102105.34;5075713;28;20103;-75
2023/09/26 09:42:48;;;;;;;12.18;7.75;;;;;;;24.13;100.00;102099.56;5074693;28;20393;-76
2023/09/26 09:45:14;;;;;;;11.02;7.70;;;;;;;24.33;100.00;102094.25;5075378;28;20107;-77
2023/09/26 09:47:42;;;;;;;11.68;7.85;;;;;;;24.40;100.00;102088.84;5074611;28;20072;-75
2023/09/26 09:50:08;;;;;;;14.48;7.50;;;;;;;24.54;100.00;102090.59;5075177;28;20083;-76
2023/09/26 09:52:35;;;;;;;13.50;7.00;;;;;;;24.41;100.00;102094.09;5074563;28;20035;-75
2023/09/26 09:55:05;;;;;;;11.23;7.22;;;;;;;24.52;100.00;102092.66;5074548;28;20048;-76
2023/09/26 09:57:35;;;;;;;12.33;6.33;;;;;;;24.59;100.00;102090.84;5074423;28;20032;-75
2023/09/26 10:00:01;;;;;;;16.92;7.35;;;;;;;24.89;100.00;102093.28;5074578;28;20067;-75
2023/09/26 10:02:27;;;;;;;12.55;6.63;;;;;;;25.04;100.00;102095.84;5074339;28;20064;-76
2023/09/26 10:04:55;;;;;;;10.05;5.53;;;;;;;24.58;100.00;102086.44;5074011;28;20064;-75
2023/09/26 10:07:24;;;;;;;12.15;4.70;;;;;;;24.24;100.00;102084.56;5072760;28;20032;-77
2023/09/26 10:09:52;;;;;;;10.18;5.55;;;;;;;23.84;100.00;102089.69;5072963;28;20366;-76
2023/09/26 10:12:19;;;;;;;11.98;4.95;;;;;;;23.79;100.00;102087.56;5073043;28;20093;-77
2023/09/26 10:14:44;;;;;;;13.32;5.28;;;;;;;23.86;100.00;102080.34;5072391;28;20017;-78
2023/09/26 10:17:10;;;;;;;7.43;3.78;;;;;;;23.95;100.00;102094.63;5074072;28;20044;-75
2023/09/26 10:19:37;;;;;;;9.23;4.47;;;;;;;23.45;100.00;102074.75;5073932;28;20474;-76
2023/09/26 10:22:15;;;;;;;12.07;4.28;;;;;;;23.18;100.00;102080.75;5056151;28;20043;-78
2023/09/26 10:24:52;;;;;;;8.02;4.05;;;;;;;22.78;100.00;102074.00;5073753;28;20073;-76
2023/09/26 10:27:32;;;;;;;9.20;4.15;;;;;;;22.49;100.00;102065.72;5074783;28;20043;-76
2023/09/26 10:29:58;;;;;;;6.93;4.03;;;;;;;22.36;100.00;102068.25;5073931;28;20024;-76
2023/09/26 10:32:34;;;;;;;8.68;3.90;;;;;;;22.50;100.00;102064.72;5073819;28;20034;-74
2023/09/26 10:35:22;;;;;;;6.85;3.92;;;;;;;22.52;100.00;102059.09;5073782;28;20036;-74
2023/09/26 10:37:49;;;;;;;13.15;3.97;;;;;;;22.54;100.00;102068.75;5073455;28;20039;-76
2023/09/26 10:40:16;;;;;;;6.53;3.72;;;;;;;22.45;100.00;102064.44;5074208;28;20088;-74
2023/09/26 10:42:45;;;;;;;6.47;3.42;;;;;;;22.33;100.00;102060.50;5073505;28;20059;-76
2023/09/26 10:45:11;;;;;;;4.53;2.88;;;;;;;22.27;100.00;102056.66;5073487;28;20119;-76
2023/09/26 10:47:38;;;;;;;8.52;3.17;;;;;;;22.33;100.00;102055.09;5072480;28;20056;-76
2023/09/26 10:50:13;;;;;;;7.38;3.22;;;;;;;22.09;100.00;102048.06;5073132;28;20040;-76
2023/09/26 10:52:49;;;;;;;7.47;3.33;;;;;;;22.08;100.00;102041.81;5074186;28;20040;-75
2023/09/26 10:55:19;;;;;;;9.32;3.33;;;;;;;22.41;100.00;102041.44;5073899;28;20036;-78
2023/09/26 10:57:45;;;;;;;7.05;3.50;;;;;;;22.57;100.00;102042.25;5071970;28;20125;-74
2023/09/26 11:00:12;;;;;;;5.97;3.30;;;;;;;22.81;100.00;102039.22;5073479;28;20119;-74
2023/09/26 11:02:38;;;;;;;5.75;3.45;;;;;;;22.81;100.00;102035.66;5073850;28;20051;-75
2023/09/26 11:05:08;;;;;;;5.22;3.10;;;;;;;22.87;100.00;102026.75;5073597;28;20078;-76